createdAt,value
2022-09-22T00:00:44.162Z,55
2022-09-22T00:01:45.240Z,55
2022-09-22T00:02:46.083Z,54
2022-09-22T00:03:47.225Z,55
2022-09-22T00:04:49.046Z,55
2022-09-22T00:05:50.099Z,55
2022-09-22T00:06:55.677Z,54
2022-09-22T00:07:57.045Z,54
2022-09-22T00:08:58.103Z,54
2022-09-22T00:09:59.083Z,54
2022-09-22T00:11:00.123Z,55
2022-09-22T00:12:01.224Z,54
2022-09-22T00:13:03.083Z,55
2022-09-22T00:14:04.084Z,55
2022-09-22T00:15:05.084Z,55
2022-09-22T00:16:06.199Z,55
2022-09-22T00:17:07.235Z,54
2022-09-22T00:18:08.082Z,55
2022-09-22T00:19:09.103Z,54
2022-09-22T00:20:10.167Z,55
2022-09-22T00:21:11.083Z,55
2022-09-22T00:22:12.105Z,55
2022-09-22T00:23:13.144Z,55
2022-09-22T00:24:14.145Z,56
2022-09-22T00:25:15.303Z,56
2022-09-22T00:26:17.144Z,55
2022-09-22T00:27:18.163Z,55
2022-09-22T00:28:19.124Z,54
2022-09-22T00:29:20.224Z,54
2022-09-22T00:30:21.163Z,53
2022-09-22T00:31:22.253Z,53
2022-09-22T00:32:23.123Z,53
2022-09-22T00:33:24.123Z,53
2022-09-22T00:34:25.062Z,53
2022-09-22T00:35:26.176Z,52
2022-09-22T00:36:27.145Z,53
2022-09-22T00:37:28.144Z,52
2022-09-22T00:38:29.103Z,53
2022-09-22T00:39:30.144Z,54
2022-09-22T00:40:32.198Z,54
2022-09-22T00:41:33.123Z,54
2022-09-22T00:42:34.182Z,55
2022-09-22T00:43:35.123Z,55
2022-09-22T00:44:36.128Z,55
2022-09-22T00:45:37.102Z,55
2022-09-22T00:46:38.279Z,55
2022-09-22T00:47:40.083Z,55
2022-09-22T00:48:41.085Z,55
2022-09-22T00:49:42.143Z,55
2022-09-22T00:50:43.188Z,55
2022-09-22T00:51:44.164Z,54
2022-09-22T00:52:45.062Z,55
2022-09-22T00:53:46.107Z,55
2022-09-22T00:54:47.223Z,54
2022-09-22T00:55:48.229Z,54
2022-09-22T00:56:49.128Z,54
2022-09-22T00:57:50.083Z,55
2022-09-22T00:58:51.063Z,55
2022-09-22T00:59:52.123Z,54
2022-09-22T01:03:45.082Z,55
2022-09-22T01:04:46.095Z,54
2022-09-22T01:05:47.118Z,52
2022-09-22T01:06:48.113Z,53
2022-09-22T01:07:49.154Z,53
2022-09-22T01:08:50.173Z,53
2022-09-22T01:09:52.097Z,55
2022-09-22T01:10:53.193Z,55
2022-09-22T01:11:55.093Z,54
2022-09-22T01:12:56.189Z,55
2022-09-22T01:13:57.174Z,54
2022-09-22T01:14:58.093Z,55
2022-09-22T01:15:59.171Z,55
2022-09-22T01:17:00.113Z,55
2022-09-22T01:18:01.277Z,55
2022-09-22T01:19:02.053Z,54
2022-09-22T01:20:03.174Z,54
2022-09-22T01:21:04.203Z,54
2022-09-22T01:22:05.113Z,54
2022-09-22T01:23:06.173Z,55
2022-09-22T01:24:07.258Z,56
2022-09-22T01:25:08.153Z,55
2022-09-22T01:26:09.113Z,56
2022-09-22T01:27:10.093Z,57
2022-09-22T01:28:11.153Z,57
2022-09-22T01:29:12.174Z,56
2022-09-22T01:30:13.161Z,55
2022-09-22T01:31:14.152Z,55
2022-09-22T01:32:15.373Z,55
2022-09-22T01:33:17.174Z,54
2022-09-22T01:34:18.174Z,55
2022-09-22T01:35:19.193Z,57
2022-09-22T01:36:20.138Z,56
2022-09-22T01:37:21.133Z,56
2022-09-22T01:38:22.154Z,58
2022-09-22T01:39:26.172Z,56
2022-09-22T01:40:27.169Z,57
2022-09-22T01:41:28.094Z,57
2022-09-22T01:42:29.113Z,58
2022-09-22T01:43:30.271Z,57
2022-09-22T01:44:32.237Z,59
2022-09-22T01:45:34.215Z,59
2022-09-22T01:46:35.151Z,58
2022-09-22T01:47:36.133Z,59
2022-09-22T01:48:37.214Z,59
2022-09-22T01:49:38.233Z,59
2022-09-22T01:50:40.253Z,60
2022-09-22T01:51:42.142Z,60
2022-09-22T01:52:43.215Z,59
2022-09-22T01:53:44.187Z,59
2022-09-22T01:54:45.155Z,58
2022-09-22T01:55:46.134Z,58
2022-09-22T01:56:47.113Z,61
2022-09-22T01:57:48.174Z,59
2022-09-22T01:58:49.182Z,58
2022-09-22T01:59:50.153Z,59
2022-09-22T02:00:51.321Z,59
2022-09-22T02:01:53.407Z,59
2022-09-22T02:02:55.357Z,59
2022-09-22T02:03:57.173Z,59
2022-09-22T02:04:58.133Z,60
2022-09-22T02:05:59.174Z,59
2022-09-22T02:07:00.219Z,59
2022-09-22T02:08:01.173Z,58
2022-09-22T02:09:02.133Z,58
2022-09-22T02:10:03.173Z,59
2022-09-22T02:11:04.153Z,59
2022-09-22T02:12:05.127Z,59
2022-09-22T02:13:06.176Z,58
2022-09-22T02:14:07.160Z,59
2022-09-22T02:15:08.173Z,58
2022-09-22T02:16:09.290Z,59
2022-09-22T02:17:11.214Z,59
2022-09-22T02:18:13.105Z,61
2022-09-22T02:19:14.293Z,60
2022-09-22T02:20:16.153Z,60
2022-09-22T02:21:17.273Z,60
2022-09-22T02:22:18.144Z,61
2022-09-22T02:23:19.113Z,61
2022-09-22T02:24:20.161Z,60
2022-09-22T02:25:21.254Z,61
2022-09-22T02:26:22.234Z,59
2022-09-22T02:27:23.134Z,59
2022-09-22T02:28:24.148Z,59
2022-09-22T02:29:25.133Z,58
2022-09-22T02:30:26.155Z,58
2022-09-22T02:31:27.889Z,57
2022-09-22T02:32:29.199Z,57
2022-09-22T02:33:33.815Z,57
2022-09-22T02:34:33.213Z,57
2022-09-22T02:35:34.173Z,57
2022-09-22T02:36:35.256Z,57
2022-09-22T02:37:36.207Z,57
2022-09-22T02:38:37.233Z,57
2022-09-22T02:39:38.108Z,57
2022-09-22T02:40:39.205Z,57
2022-09-22T02:41:40.193Z,56
2022-09-22T02:42:41.173Z,57
2022-09-22T02:43:42.194Z,58
2022-09-22T02:44:43.213Z,57
2022-09-22T02:45:44.172Z,57
2022-09-22T02:46:45.199Z,56
2022-09-22T02:47:46.173Z,57
2022-09-22T02:48:47.276Z,58
2022-09-22T02:49:48.194Z,57
2022-09-22T02:50:49.133Z,58
2022-09-22T02:51:50.094Z,58
2022-09-22T02:52:51.178Z,59
2022-09-22T02:53:52.163Z,59
2022-09-22T02:54:53.232Z,59
2022-09-22T02:55:54.173Z,59
2022-09-22T02:56:55.156Z,59
2022-09-22T02:57:56.253Z,59
2022-09-22T02:58:58.686Z,60
2022-09-22T02:59:59.213Z,61
2022-09-22T03:01:00.175Z,60
2022-09-22T03:02:01.414Z,60
2022-09-22T03:03:03.174Z,59
2022-09-22T03:04:04.193Z,59
2022-09-22T03:05:05.280Z,59
2022-09-22T03:06:06.214Z,59
2022-09-22T03:07:07.154Z,58
2022-09-22T03:08:08.162Z,57
2022-09-22T03:09:09.140Z,56
2022-09-22T03:10:10.373Z,56
2022-09-22T03:11:12.134Z,55
2022-09-22T03:12:13.174Z,55
2022-09-22T03:13:16.750Z,55
2022-09-22T03:14:16.196Z,54
2022-09-22T03:15:17.222Z,54
2022-09-22T03:16:18.278Z,53
2022-09-22T03:17:19.293Z,53
2022-09-22T03:18:20.213Z,55
2022-09-22T03:19:21.173Z,56
2022-09-22T03:20:22.274Z,56
2022-09-22T03:21:23.228Z,57
2022-09-22T03:22:24.156Z,57
2022-09-22T03:23:25.198Z,57
2022-09-22T03:24:26.173Z,57
2022-09-22T03:25:27.197Z,57
2022-09-22T03:26:28.157Z,56
2022-09-22T03:27:29.097Z,56
2022-09-22T03:28:30.154Z,56
2022-09-22T03:29:31.194Z,56
2022-09-22T03:30:32.444Z,55
2022-09-22T03:31:34.321Z,54
2022-09-22T03:32:35.174Z,54
2022-09-22T03:33:36.212Z,56
2022-09-22T03:34:37.313Z,56
2022-09-22T03:35:38.257Z,55
2022-09-22T03:36:39.194Z,55
2022-09-22T03:37:40.174Z,56
2022-09-22T03:38:41.227Z,55
2022-09-22T03:39:42.173Z,56
2022-09-22T03:40:43.235Z,55
2022-09-22T03:41:44.173Z,54
2022-09-22T03:42:45.235Z,56
2022-09-22T03:43:46.201Z,56
2022-09-22T03:44:47.255Z,56
2022-09-22T03:45:49.327Z,56
2022-09-22T03:46:50.213Z,55
2022-09-22T03:47:51.273Z,55
2022-09-22T03:48:53.293Z,55
2022-09-22T03:49:55.275Z,55
2022-09-22T03:50:56.295Z,55
2022-09-22T03:51:58.255Z,54
2022-09-22T03:52:59.213Z,56
2022-09-22T03:54:00.335Z,56
2022-09-22T03:55:01.241Z,56
2022-09-22T03:56:02.222Z,56
2022-09-22T03:57:03.199Z,58
2022-09-22T03:58:04.253Z,59
2022-09-22T03:59:05.195Z,156
2022-09-22T04:00:06.314Z,68
2022-09-22T04:01:08.420Z,57
2022-09-22T04:02:10.305Z,57
2022-09-22T04:03:12.274Z,140
2022-09-22T04:04:13.213Z,94
2022-09-22T04:05:14.230Z,124
2022-09-22T04:06:15.594Z,76
2022-09-22T04:07:17.274Z,78
2022-09-22T04:08:18.235Z,104
2022-09-22T04:09:19.262Z,68
2022-09-22T04:10:20.261Z,66
2022-09-22T04:11:21.216Z,67
2022-09-22T04:12:22.262Z,131
2022-09-22T04:13:23.253Z,208
2022-09-22T04:14:24.294Z,244
2022-09-22T04:15:26.381Z,276
2022-09-22T04:16:28.631Z,204
2022-09-22T04:17:30.374Z,250
2022-09-22T04:18:32.194Z,190
2022-09-22T04:19:33.234Z,184
2022-09-22T04:20:34.198Z,128
2022-09-22T04:21:35.148Z,151
2022-09-22T04:22:36.233Z,182
2022-09-22T04:23:37.233Z,476
2022-09-22T04:24:38.318Z,282
2022-09-22T04:25:39.298Z,124
2022-09-22T04:26:51.728Z,113
2022-09-22T04:27:42.253Z,143
2022-09-22T04:28:43.253Z,121
2022-09-22T04:29:44.222Z,117
2022-09-22T04:30:45.277Z,107
2022-09-22T04:31:46.173Z,96
2022-09-22T04:32:47.274Z,119
2022-09-22T04:33:48.254Z,80
2022-09-22T04:34:49.226Z,141
2022-09-22T04:35:50.214Z,243
2022-09-22T04:36:51.214Z,219
2022-09-22T04:37:52.227Z,306
2022-09-22T04:38:53.333Z,412
2022-09-22T04:39:55.301Z,301
2022-09-22T04:40:56.234Z,301
2022-09-22T04:41:57.273Z,377
2022-09-22T04:42:59.348Z,338
2022-09-22T04:44:01.313Z,311
2022-09-22T04:45:02.294Z,510
2022-09-22T04:46:03.387Z,443
2022-09-22T04:47:04.262Z,473
2022-09-22T04:48:05.233Z,468
2022-09-22T04:49:06.213Z,330
2022-09-22T04:50:07.273Z,422
2022-09-22T04:51:08.175Z,506
2022-09-22T04:52:09.273Z,328
2022-09-22T04:53:10.194Z,426
2022-09-22T04:54:11.271Z,449
2022-09-22T04:55:12.262Z,609
2022-09-22T04:56:13.234Z,417
2022-09-22T04:57:17.160Z,294
2022-09-22T04:58:15.616Z,415
2022-09-22T04:59:17.233Z,438
2022-09-22T05:00:18.292Z,519
2022-09-22T05:01:19.347Z,367
2022-09-22T05:02:20.234Z,415
2022-09-22T05:03:22.299Z,442
2022-09-22T05:04:22.294Z,458
2022-09-22T05:05:23.193Z,468
2022-09-22T05:06:24.293Z,471
2022-09-22T05:07:25.294Z,516
2022-09-22T05:08:26.233Z,526
2022-09-22T05:09:27.300Z,572
2022-09-22T05:10:29.272Z,622
2022-09-22T05:11:30.373Z,533
2022-09-22T05:12:32.214Z,484
2022-09-22T05:13:33.196Z,351
2022-09-22T05:14:34.233Z,268
2022-09-22T05:15:35.339Z,393
2022-09-22T05:16:36.353Z,239
2022-09-22T05:17:37.274Z,173
2022-09-22T05:18:38.273Z,354
2022-09-22T05:19:39.303Z,300
2022-09-22T05:20:41.272Z,211
2022-09-22T05:21:42.237Z,232
2022-09-22T05:22:43.238Z,255
2022-09-22T05:23:44.313Z,243
2022-09-22T05:24:45.313Z,243
2022-09-22T05:25:46.318Z,206
2022-09-22T05:26:47.309Z,391
2022-09-22T05:27:49.383Z,327
2022-09-22T05:28:51.332Z,322
2022-09-22T05:29:53.302Z,491
2022-09-22T05:30:54.293Z,331
2022-09-22T05:31:56.262Z,615
2022-09-22T05:32:58.212Z,458
2022-09-22T05:33:59.213Z,359
2022-09-22T05:35:00.273Z,466
2022-09-22T05:36:01.175Z,368
2022-09-22T05:37:02.297Z,455
2022-09-22T05:38:03.229Z,292
2022-09-22T05:39:04.233Z,195
2022-09-22T05:40:05.272Z,354
2022-09-22T05:41:06.260Z,211
2022-09-22T05:42:10.834Z,149
2022-09-22T05:43:08.192Z,266
2022-09-22T05:44:09.302Z,136
2022-09-22T05:45:10.233Z,108
2022-09-22T05:46:11.299Z,343
2022-09-22T05:47:12.261Z,230
2022-09-22T05:48:13.274Z,161
2022-09-22T05:49:14.254Z,192
2022-09-22T05:50:15.764Z,331
2022-09-22T05:51:17.333Z,176
2022-09-22T05:52:18.313Z,101
2022-09-22T05:53:19.240Z,89
2022-09-22T05:54:23.308Z,123
2022-09-22T05:55:21.317Z,91
2022-09-22T05:56:22.307Z,98
2022-09-22T05:57:23.341Z,101
2022-09-22T05:58:24.254Z,93
2022-09-22T05:59:25.233Z,108
2022-09-22T06:00:26.252Z,97
2022-09-22T06:01:27.366Z,99
2022-09-22T06:02:28.311Z,113
2022-09-22T06:03:29.272Z,106
2022-09-22T06:04:30.334Z,148
2022-09-22T06:05:31.253Z,109
2022-09-22T06:06:32.253Z,152
2022-09-22T06:07:33.273Z,117
2022-09-22T06:08:34.232Z,95
2022-09-22T06:09:35.321Z,100
2022-09-22T06:10:36.272Z,99
2022-09-22T06:11:37.362Z,100
2022-09-22T06:12:38.313Z,100
2022-09-22T06:13:39.293Z,90
2022-09-22T06:14:40.293Z,100
2022-09-22T06:15:41.293Z,106
2022-09-22T06:16:42.318Z,90
2022-09-22T06:17:43.313Z,90
2022-09-22T06:18:44.275Z,82
2022-09-22T06:19:45.233Z,89
2022-09-22T06:20:46.273Z,101
2022-09-22T06:21:47.254Z,96
2022-09-22T06:22:51.274Z,84
2022-09-22T06:23:52.274Z,94
2022-09-22T06:24:53.293Z,101
2022-09-22T06:25:54.263Z,91
2022-09-22T06:26:55.317Z,101
2022-09-22T06:27:56.253Z,101
2022-09-22T06:28:57.274Z,96
2022-09-22T06:29:58.274Z,91
2022-09-22T06:30:59.348Z,95
2022-09-22T06:32:00.406Z,101
2022-09-22T06:33:01.233Z,99
2022-09-22T06:34:06.887Z,85
2022-09-22T06:35:03.335Z,88
2022-09-22T06:36:04.295Z,102
2022-09-22T06:37:05.283Z,91
2022-09-22T06:38:06.380Z,87
2022-09-22T06:39:07.429Z,95
2022-09-22T06:40:11.927Z,86
2022-09-22T06:41:10.373Z,96
2022-09-22T06:42:11.349Z,91
2022-09-22T06:43:12.315Z,92
2022-09-22T06:44:13.185Z,86
2022-09-22T06:45:14.413Z,116
2022-09-22T06:46:16.460Z,113
2022-09-22T06:47:18.381Z,84
2022-09-22T06:48:20.375Z,79
2022-09-22T06:49:21.433Z,89
2022-09-22T06:50:23.422Z,98
2022-09-22T06:51:24.368Z,109
2022-09-22T06:52:25.438Z,81
2022-09-22T06:53:27.737Z,88
2022-09-22T06:54:28.264Z,87
2022-09-22T06:55:29.467Z,76
2022-09-22T06:56:34.104Z,79
2022-09-22T06:57:33.478Z,82
2022-09-22T06:58:47.139Z,89
2022-09-22T06:59:36.354Z,74
2022-09-22T07:00:37.449Z,72
2022-09-22T07:01:38.506Z,74
2022-09-22T07:02:40.374Z,76
2022-09-22T07:03:41.374Z,76
2022-09-22T07:04:42.394Z,74
2022-09-22T07:05:43.330Z,71
2022-09-22T07:06:44.454Z,71
2022-09-22T07:07:46.400Z,70
2022-09-22T07:08:47.360Z,69
2022-09-22T07:09:48.333Z,68
2022-09-22T07:10:49.370Z,68
2022-09-22T07:11:50.491Z,67
2022-09-22T07:12:52.397Z,67
2022-09-22T07:13:54.373Z,67
2022-09-22T07:14:55.414Z,65
2022-09-22T07:15:57.619Z,62
2022-09-22T07:16:59.329Z,62
2022-09-22T07:18:00.333Z,62
2022-09-22T07:19:01.316Z,62
2022-09-22T07:20:02.469Z,62
2022-09-22T07:21:04.317Z,61
2022-09-22T07:22:05.312Z,60
2022-09-22T07:23:06.333Z,60
2022-09-22T07:24:07.678Z,60
2022-09-22T07:25:09.495Z,59
2022-09-22T07:26:11.393Z,58
2022-09-22T07:27:13.373Z,58
2022-09-22T07:28:14.323Z,58
2022-09-22T07:29:15.824Z,58
2022-09-22T07:30:17.313Z,58
2022-09-22T07:31:18.428Z,57
2022-09-22T07:32:19.354Z,57
2022-09-22T07:33:20.301Z,56
2022-09-22T07:34:21.382Z,56
2022-09-22T07:35:22.334Z,57
2022-09-22T07:36:23.373Z,57
2022-09-22T07:37:24.313Z,57
2022-09-22T07:38:25.494Z,57
2022-09-22T07:39:27.351Z,59
2022-09-22T07:40:28.376Z,58
2022-09-22T07:41:29.315Z,58
2022-09-22T07:42:30.374Z,60
2022-09-22T07:43:31.304Z,58
2022-09-22T07:44:32.463Z,57
2022-09-22T07:45:33.275Z,57
2022-09-22T07:46:34.350Z,56
2022-09-22T07:47:35.333Z,56
2022-09-22T07:48:36.388Z,55
2022-09-22T07:49:37.393Z,56
2022-09-22T07:50:38.392Z,55
2022-09-22T07:51:39.409Z,55
2022-09-22T07:52:40.321Z,55
2022-09-22T07:53:41.373Z,55
2022-09-22T07:54:42.374Z,56
2022-09-22T07:55:43.376Z,55
2022-09-22T07:56:44.313Z,55
2022-09-22T07:57:45.313Z,55
2022-09-22T07:58:46.322Z,55
2022-09-22T07:59:47.353Z,55
2022-09-22T08:00:48.416Z,56
2022-09-22T08:01:49.401Z,56
2022-09-22T08:02:50.313Z,56
2022-09-22T08:03:51.395Z,56
2022-09-22T08:04:52.314Z,56
2022-09-22T08:05:53.321Z,56
2022-09-22T08:06:54.335Z,54
2022-09-22T08:07:55.293Z,52
2022-09-22T08:08:56.436Z,53
2022-09-22T08:09:57.334Z,53
2022-09-22T08:10:59.434Z,52
2022-09-22T08:12:00.393Z,51
2022-09-22T08:13:01.340Z,51
2022-09-22T08:14:02.405Z,51
2022-09-22T08:15:03.413Z,51
2022-09-22T08:16:04.481Z,51
2022-09-22T08:17:05.313Z,52
2022-09-22T08:18:06.375Z,50
2022-09-22T08:19:07.413Z,49
2022-09-22T08:20:08.369Z,49
2022-09-22T08:21:09.354Z,48
2022-09-22T08:22:10.453Z,46
2022-09-22T08:23:11.280Z,45
2022-09-22T08:24:12.333Z,45
2022-09-22T08:25:13.313Z,44
2022-09-22T08:26:14.334Z,45
2022-09-22T08:27:15.974Z,45
2022-09-22T08:28:17.354Z,45
2022-09-22T08:29:18.313Z,44
2022-09-22T08:30:19.445Z,45
2022-09-22T08:31:20.451Z,45
2022-09-22T08:32:21.501Z,45
2022-09-22T08:33:23.423Z,44
2022-09-22T08:34:24.354Z,44
2022-09-22T08:35:25.341Z,45
2022-09-22T08:36:26.438Z,46
2022-09-22T08:37:27.373Z,46
2022-09-22T08:38:28.377Z,46
2022-09-22T08:39:29.334Z,45
2022-09-22T08:40:30.493Z,42
2022-09-22T08:41:31.373Z,40
2022-09-22T08:42:32.335Z,39
2022-09-22T08:43:33.374Z,40
2022-09-22T08:44:34.396Z,40
2022-09-22T08:45:35.395Z,42
2022-09-22T08:46:36.447Z,42
2022-09-22T08:47:37.441Z,43
2022-09-22T08:48:38.419Z,43
2022-09-22T08:49:39.292Z,44
2022-09-22T08:50:40.370Z,43
2022-09-22T08:51:41.354Z,43
2022-09-22T08:52:42.373Z,43
2022-09-22T08:53:43.474Z,42
2022-09-22T08:54:44.356Z,42
2022-09-22T08:55:45.393Z,42
2022-09-22T08:56:46.397Z,40
2022-09-22T08:57:47.392Z,40
2022-09-22T08:58:48.315Z,40
2022-09-22T08:59:49.445Z,40
2022-09-22T09:00:50.394Z,40
2022-09-22T09:01:51.439Z,42
2022-09-22T09:02:52.508Z,42
2022-09-22T09:03:53.373Z,42
2022-09-22T09:04:54.374Z,40
2022-09-22T09:05:55.312Z,40
2022-09-22T09:06:56.493Z,40
2022-09-22T09:07:58.393Z,39
2022-09-22T09:09:04.106Z,39
2022-09-22T09:10:00.378Z,39
2022-09-22T09:11:01.378Z,40
2022-09-22T09:12:02.394Z,40
2022-09-22T09:13:03.454Z,40
2022-09-22T09:14:05.480Z,40
2022-09-22T09:15:06.507Z,42
2022-09-22T09:16:07.465Z,42
2022-09-22T09:17:08.373Z,42
2022-09-22T09:18:09.435Z,42
2022-09-22T09:19:10.381Z,40
2022-09-22T09:20:11.433Z,40
2022-09-22T09:21:12.393Z,40
2022-09-22T09:22:13.373Z,39
2022-09-22T09:23:14.362Z,38
2022-09-22T09:25:25.615Z,37
2022-09-22T09:26:19.273Z,37
2022-09-22T09:27:20.373Z,37
2022-09-22T09:28:25.493Z,38
2022-09-22T09:29:22.374Z,37
2022-09-22T09:30:23.480Z,37
2022-09-22T09:31:24.465Z,36
2022-09-22T09:32:25.395Z,34
2022-09-22T09:33:26.439Z,34
2022-09-22T09:34:28.422Z,34
2022-09-22T09:35:29.354Z,33
2022-09-22T09:36:30.416Z,34
2022-09-22T09:37:31.364Z,35
2022-09-22T09:38:32.374Z,34
2022-09-22T09:39:33.421Z,34
2022-09-22T09:40:34.430Z,34
2022-09-22T09:41:35.374Z,34
2022-09-22T09:42:36.355Z,33
2022-09-22T09:43:37.435Z,33
2022-09-22T09:44:38.393Z,33
2022-09-22T09:45:39.397Z,33
2022-09-22T09:46:40.471Z,34
2022-09-22T09:47:41.393Z,35
2022-09-22T09:48:42.494Z,36
2022-09-22T09:49:43.413Z,35
2022-09-22T09:50:44.312Z,34
2022-09-22T09:51:45.373Z,35
2022-09-22T09:52:46.361Z,36
2022-09-22T09:53:47.419Z,34
2022-09-22T09:54:48.393Z,34
2022-09-22T09:55:49.476Z,35
2022-09-22T09:56:50.414Z,35
2022-09-22T09:57:51.437Z,35
2022-09-22T09:58:52.433Z,34
2022-09-22T09:59:53.376Z,34
2022-09-22T10:00:54.478Z,33
2022-09-22T10:01:55.480Z,34
2022-09-22T10:02:56.373Z,34
2022-09-22T10:03:57.424Z,34
2022-09-22T10:04:58.408Z,34
2022-09-22T10:05:59.433Z,35
2022-09-22T10:07:01.343Z,35
2022-09-22T10:08:01.415Z,34
2022-09-22T10:09:02.499Z,34
2022-09-22T10:10:03.434Z,36
2022-09-22T10:11:04.414Z,34
2022-09-22T10:12:05.384Z,34
2022-09-22T10:13:06.422Z,34
2022-09-22T10:14:07.515Z,34
2022-09-22T10:15:08.466Z,34
2022-09-22T10:16:09.562Z,35
2022-09-22T10:17:10.414Z,34
2022-09-22T10:18:11.405Z,35
2022-09-22T10:19:12.393Z,33
2022-09-22T10:20:13.625Z,34
2022-09-22T10:21:15.379Z,34
2022-09-22T10:22:16.455Z,35
2022-09-22T10:23:17.449Z,35
2022-09-22T10:24:18.482Z,34
2022-09-22T10:25:19.534Z,35
2022-09-22T10:26:20.456Z,34
2022-09-22T10:27:21.494Z,35
2022-09-22T10:28:23.514Z,34
2022-09-22T10:29:25.433Z,34
2022-09-22T10:30:27.577Z,33
2022-09-22T10:31:29.440Z,34
2022-09-22T10:32:30.513Z,33
2022-09-22T10:33:31.415Z,33
2022-09-22T10:34:32.584Z,34
2022-09-22T10:35:34.496Z,34
2022-09-22T10:36:35.434Z,34
2022-09-22T10:37:36.441Z,35
2022-09-22T10:38:37.542Z,35
2022-09-22T10:39:44.436Z,35
2022-09-22T10:40:45.518Z,35
2022-09-22T10:41:46.474Z,35
2022-09-22T10:42:47.412Z,34
2022-09-22T10:43:48.443Z,35
2022-09-22T10:44:49.444Z,35
2022-09-22T10:45:50.582Z,35
2022-09-22T10:46:51.468Z,35
2022-09-22T10:47:52.416Z,34
2022-09-22T10:48:53.474Z,34
2022-09-22T10:49:54.421Z,34
2022-09-22T10:50:55.482Z,34
2022-09-22T10:51:56.694Z,34
2022-09-22T10:52:58.473Z,34
2022-09-22T10:54:00.454Z,34
2022-09-22T10:55:01.415Z,35
2022-09-22T10:56:02.413Z,34
2022-09-22T10:57:03.434Z,33
2022-09-22T10:58:04.502Z,34
2022-09-22T10:59:05.453Z,35
2022-09-22T11:00:06.510Z,35
2022-09-22T11:01:07.571Z,35
2022-09-22T11:02:08.443Z,35
2022-09-22T11:03:09.477Z,35
2022-09-22T11:04:10.599Z,35
2022-09-22T11:05:11.453Z,34
2022-09-22T11:06:12.493Z,34
2022-09-22T11:07:14.534Z,34
2022-09-22T11:08:15.413Z,34
2022-09-22T11:09:16.587Z,34
2022-09-22T11:10:18.510Z,35
2022-09-22T11:11:19.415Z,35
2022-09-22T11:12:20.493Z,34
2022-09-22T11:13:21.482Z,34
2022-09-22T11:14:22.535Z,35
2022-09-22T11:15:23.519Z,35
2022-09-22T11:16:24.393Z,36
2022-09-22T11:17:25.443Z,35
2022-09-22T11:18:26.475Z,35
2022-09-22T11:19:28.514Z,35
2022-09-22T11:20:30.414Z,35
2022-09-22T11:21:31.453Z,35
2022-09-22T11:22:32.442Z,35
2022-09-22T11:23:33.394Z,35
2022-09-22T11:24:34.482Z,35
2022-09-22T11:25:35.394Z,35
2022-09-22T11:26:36.593Z,35
2022-09-22T11:27:38.516Z,34
2022-09-22T11:28:39.441Z,34
2022-09-22T11:29:40.454Z,35
2022-09-22T11:30:41.565Z,35
2022-09-22T11:31:42.486Z,35
2022-09-22T11:32:43.457Z,35
2022-09-22T11:33:44.574Z,34
2022-09-22T11:34:45.473Z,35
2022-09-22T11:35:46.473Z,35
2022-09-22T11:36:51.384Z,35
2022-09-22T11:37:48.453Z,34
2022-09-22T11:38:49.461Z,34
2022-09-22T11:39:50.494Z,35
2022-09-22T11:40:51.610Z,34
2022-09-22T11:41:52.593Z,34
2022-09-22T11:42:53.430Z,35
2022-09-22T11:43:55.737Z,35
2022-09-22T11:44:56.553Z,35
2022-09-22T11:45:58.657Z,34
2022-09-22T11:47:00.434Z,33
2022-09-22T11:48:01.458Z,34
2022-09-22T11:49:02.475Z,35
2022-09-22T11:50:03.513Z,34
2022-09-22T11:51:04.534Z,35
2022-09-22T11:52:05.514Z,35
2022-09-22T11:53:06.493Z,35
2022-09-22T11:54:07.474Z,35
2022-09-22T11:55:08.529Z,36
2022-09-22T11:56:09.435Z,35
2022-09-22T11:57:10.494Z,35
2022-09-22T11:58:11.510Z,35
2022-09-22T11:59:12.513Z,35
2022-09-22T12:00:13.533Z,36
2022-09-22T12:01:14.494Z,35
2022-09-22T12:02:15.637Z,36
2022-09-22T12:03:16.706Z,36
2022-09-22T12:04:17.580Z,35
2022-09-22T12:05:18.495Z,35
2022-09-22T12:06:19.534Z,36
2022-09-22T12:07:20.511Z,36
2022-09-22T12:08:21.536Z,36
2022-09-22T12:09:22.526Z,37
2022-09-22T12:10:23.454Z,37
2022-09-22T12:11:24.414Z,36
2022-09-22T12:12:25.521Z,36
2022-09-22T12:13:26.548Z,36
2022-09-22T12:14:27.613Z,36
2022-09-22T12:15:28.499Z,35
2022-09-22T12:16:29.454Z,36
2022-09-22T12:17:30.517Z,36
2022-09-22T12:18:31.552Z,37
2022-09-22T12:19:32.432Z,37
2022-09-22T12:20:33.455Z,36
2022-09-22T12:21:34.453Z,36
2022-09-22T12:22:35.514Z,37
2022-09-22T12:23:36.581Z,36
2022-09-22T12:24:38.553Z,37
2022-09-22T12:25:47.753Z,36
2022-09-22T12:26:40.513Z,36
2022-09-22T12:27:41.592Z,36
2022-09-22T12:28:42.534Z,37
2022-09-22T12:29:43.541Z,36
2022-09-22T12:30:44.586Z,36
2022-09-22T12:31:46.456Z,35
2022-09-22T12:32:47.534Z,35
2022-09-22T12:33:48.534Z,34
2022-09-22T12:34:49.495Z,34
2022-09-22T12:35:50.553Z,35
2022-09-22T12:36:51.514Z,35
2022-09-22T12:37:52.473Z,35
2022-09-22T12:38:53.513Z,34
2022-09-22T12:39:54.475Z,34
2022-09-22T12:40:55.514Z,35
2022-09-22T12:41:57.759Z,35
2022-09-22T12:42:58.565Z,35
2022-09-22T12:44:00.475Z,35
2022-09-22T12:45:01.519Z,36
2022-09-22T12:46:02.627Z,36
2022-09-22T12:47:03.488Z,35
2022-09-22T12:48:05.772Z,36
2022-09-22T12:49:05.609Z,35
2022-09-22T12:50:06.621Z,36
2022-09-22T12:51:08.535Z,36
2022-09-22T12:52:09.473Z,36
2022-09-22T12:53:10.533Z,36
2022-09-22T12:54:11.494Z,37
2022-09-22T12:55:12.713Z,37
2022-09-22T12:56:14.654Z,37
2022-09-22T12:57:16.562Z,37
2022-09-22T12:58:17.533Z,37
2022-09-22T12:59:18.493Z,37
2022-09-22T13:00:19.493Z,37
2022-09-22T13:01:20.729Z,38
2022-09-22T13:02:21.542Z,37
2022-09-22T13:03:22.617Z,37
2022-09-22T13:04:24.626Z,36
2022-09-22T13:05:26.560Z,37
2022-09-22T13:06:27.487Z,36
2022-09-22T13:07:28.635Z,37
2022-09-22T13:08:30.552Z,36
2022-09-22T13:09:31.514Z,37
2022-09-22T13:10:32.613Z,37
2022-09-22T13:11:34.456Z,37
2022-09-22T13:12:35.414Z,37
2022-09-22T13:13:36.515Z,36
2022-09-22T13:14:37.474Z,36
2022-09-22T13:15:38.533Z,37
2022-09-22T13:16:39.495Z,37
2022-09-22T13:17:43.597Z,38
2022-09-22T13:18:45.580Z,36
2022-09-22T13:19:46.622Z,37
2022-09-22T13:20:47.514Z,37
2022-09-22T13:21:48.494Z,37
2022-09-22T13:22:49.560Z,37
2022-09-22T13:23:50.514Z,38
2022-09-22T13:24:51.553Z,38
2022-09-22T13:25:52.788Z,38
2022-09-22T13:26:54.580Z,37
2022-09-22T13:27:56.531Z,37
2022-09-22T13:28:57.663Z,37
2022-09-22T13:29:59.648Z,37
2022-09-22T13:31:02.135Z,37
2022-09-22T13:32:02.483Z,37
2022-09-22T13:33:03.533Z,36
2022-09-22T13:34:04.537Z,37
2022-09-22T13:35:05.591Z,36
2022-09-22T13:36:06.462Z,36
2022-09-22T13:37:07.593Z,38
2022-09-22T13:38:08.629Z,36
2022-09-22T13:39:09.474Z,37
2022-09-22T13:40:10.610Z,38
2022-09-22T13:41:11.513Z,37
2022-09-22T13:42:12.469Z,37
2022-09-22T13:43:13.514Z,38
2022-09-22T13:44:14.398Z,37
2022-09-22T13:45:15.553Z,37
2022-09-22T13:46:16.593Z,37
2022-09-22T13:47:17.678Z,37
2022-09-22T13:48:19.653Z,37
2022-09-22T13:49:21.714Z,37
2022-09-22T13:50:23.791Z,38
2022-09-22T13:51:25.534Z,37
2022-09-22T13:52:26.552Z,37
2022-09-22T13:53:27.565Z,37
2022-09-22T13:54:28.575Z,37
2022-09-22T13:55:29.742Z,37
2022-09-22T13:56:31.522Z,37
2022-09-22T13:57:32.492Z,38
2022-09-22T13:58:33.553Z,38
2022-09-22T13:59:34.603Z,37
2022-09-22T14:00:45.031Z,37
2022-09-22T14:01:36.661Z,37
2022-09-22T14:02:37.974Z,37
2022-09-22T14:03:39.655Z,37
2022-09-22T14:04:41.573Z,37
2022-09-22T14:05:53.102Z,37
2022-09-22T14:06:44.554Z,38
2022-09-22T14:08:01.243Z,37
2022-09-22T14:08:46.518Z,36
2022-09-22T14:09:47.534Z,36
2022-09-22T14:10:48.534Z,37
2022-09-22T14:11:49.529Z,37
2022-09-22T14:12:50.604Z,37
2022-09-22T14:13:51.594Z,37
2022-09-22T14:14:52.533Z,37
2022-09-22T14:15:53.534Z,36
2022-09-22T14:16:54.618Z,37
2022-09-22T14:17:55.537Z,38
2022-09-22T14:18:56.703Z,38
2022-09-22T14:19:58.629Z,37
2022-09-22T14:21:00.637Z,37
2022-09-22T14:22:01.542Z,37
2022-09-22T14:23:02.660Z,38
2022-09-22T14:24:03.523Z,37
2022-09-22T14:25:04.555Z,37
2022-09-22T14:26:05.574Z,37
2022-09-22T14:27:06.540Z,37
2022-09-22T14:28:07.653Z,37
2022-09-22T14:29:08.573Z,37
2022-09-22T14:30:09.596Z,37
2022-09-22T14:31:10.679Z,37
2022-09-22T14:32:13.060Z,37